createdAt,value
2023-05-05T00:00:34.387Z,74.2476
2023-05-05T00:01:37.389Z,73.8095
2023-05-05T00:02:40.393Z,73.4533
2023-05-05T00:03:43.394Z,74.2851
2023-05-05T00:04:46.224Z,74.9060
2023-05-05T00:05:49.178Z,74.4497
2023-05-05T00:06:52.140Z,74.2820
2023-05-05T00:07:55.092Z,73.9545
2023-05-05T00:08:58.018Z,74.4123
2023-05-05T00:10:00.989Z,74.9825
2023-05-05T00:11:03.935Z,74.8614
2023-05-05T00:12:06.886Z,74.5902
2023-05-05T00:13:09.866Z,74.7115
2023-05-05T00:14:12.806Z,75.0746
2023-05-05T00:15:15.893Z,75.3584
2023-05-05T00:16:18.700Z,74.7913
2023-05-05T00:17:21.660Z,74.8341
2023-05-05T00:18:24.640Z,75.0607
2023-05-05T00:19:27.570Z,75.6213
2023-05-05T00:20:30.529Z,75.5606
2023-05-05T00:21:33.459Z,75.3037
2023-05-05T00:22:36.441Z,74.8027
2023-05-05T00:23:39.365Z,74.5120
2023-05-05T00:24:42.354Z,74.7049
2023-05-05T00:25:45.297Z,75.3577
2023-05-05T00:26:48.237Z,75.2811
2023-05-05T00:27:51.176Z,75.3340
2023-05-05T00:28:54.187Z,75.1204
2023-05-05T00:29:57.078Z,75.1440
2023-05-05T00:31:00.067Z,74.8780
2023-05-05T00:32:02.972Z,75.2353
2023-05-05T00:33:05.972Z,75.4428
2023-05-05T00:34:08.875Z,75.0428
2023-05-05T00:35:11.873Z,75.3010
2023-05-05T00:36:14.797Z,75.7008
2023-05-05T00:37:17.729Z,74.9706
2023-05-05T00:38:20.715Z,75.2711
2023-05-05T00:39:23.655Z,75.4573
2023-05-05T00:40:26.594Z,75.5847
2023-05-05T00:41:29.550Z,75.7393
2023-05-05T00:42:32.480Z,76.1163
2023-05-05T00:43:35.463Z,76.3107
2023-05-05T00:44:38.402Z,76.3377
2023-05-05T00:45:41.365Z,77.0139
2023-05-05T00:46:44.380Z,76.6098
2023-05-05T00:47:47.240Z,77.0826
2023-05-05T00:48:50.195Z,76.8302
2023-05-05T00:49:53.182Z,77.5780
2023-05-05T00:50:56.085Z,77.4178
2023-05-05T00:51:59.048Z,76.9240
2023-05-05T00:53:01.987Z,78.2129
2023-05-05T00:54:04.942Z,77.0024
2023-05-05T00:55:07.911Z,77.3102
2023-05-05T00:56:10.850Z,78.0179
2023-05-05T00:57:13.789Z,77.9616
2023-05-05T00:58:16.731Z,78.1823
2023-05-05T00:59:19.685Z,78.7583
2023-05-05T01:00:22.627Z,78.6402
2023-05-05T01:01:25.668Z,78.1553
2023-05-05T01:02:28.623Z,77.7466
2023-05-05T01:03:31.538Z,78.2629
2023-05-05T01:04:34.469Z,77.7648
2023-05-05T01:05:37.439Z,77.5742
2023-05-05T01:06:40.392Z,77.3435
2023-05-05T01:07:43.354Z,77.4590
2023-05-05T01:08:46.316Z,77.8353
2023-05-05T01:09:53.412Z,78.0216
2023-05-05T01:10:52.216Z,78.4654
2023-05-05T01:11:55.171Z,78.5529
2023-05-05T01:12:58.169Z,77.8561
2023-05-05T01:14:01.074Z,78.9197
2023-05-05T01:15:04.034Z,78.4398
2023-05-05T01:16:07.177Z,79.4099
2023-05-05T01:17:09.990Z,78.9545
2023-05-05T01:18:12.922Z,78.5273
2023-05-05T01:19:15.871Z,79.2335
2023-05-05T01:20:18.811Z,78.4335
2023-05-05T01:21:21.779Z,78.6935
2023-05-05T01:22:24.765Z,79.0206
2023-05-05T01:23:27.712Z,78.8753
2023-05-05T01:24:30.630Z,78.5360
2023-05-05T01:25:33.596Z,78.7355
2023-05-05T01:26:36.541Z,79.0072
2023-05-05T01:27:39.547Z,79.2239
2023-05-05T01:28:42.547Z,78.9403
2023-05-05T01:29:45.428Z,79.4801
2023-05-05T01:30:48.387Z,79.5432
2023-05-05T01:31:51.402Z,79.3434
2023-05-05T01:32:54.293Z,79.4396
2023-05-05T01:33:57.273Z,78.8463
2023-05-05T01:35:00.208Z,78.8665
2023-05-05T01:36:03.246Z,78.7896
2023-05-05T01:37:06.125Z,79.1568
2023-05-05T01:38:09.088Z,79.0913
2023-05-05T01:39:12.041Z,79.3933
2023-05-05T01:40:14.990Z,78.8301
2023-05-05T01:41:17.946Z,78.6766
2023-05-05T01:42:20.918Z,79.0751
2023-05-05T01:43:23.864Z,79.2170
2023-05-05T01:44:26.812Z,79.0719
2023-05-05T01:45:29.821Z,79.1434
2023-05-05T01:46:32.770Z,79.1432
2023-05-05T01:47:35.686Z,78.9643
2023-05-05T01:48:39.750Z,78.9079
2023-05-05T01:49:41.606Z,78.7302
2023-05-05T01:50:44.559Z,78.4507
2023-05-05T01:51:47.553Z,78.8751
2023-05-05T01:52:50.490Z,78.6965
2023-05-05T01:53:53.455Z,77.8669
2023-05-05T01:54:56.384Z,78.3210
2023-05-05T01:55:59.390Z,78.0845
2023-05-05T01:57:02.475Z,78.1088
2023-05-05T01:58:05.260Z,77.7030
2023-05-05T01:59:08.210Z,78.3720
2023-05-05T02:00:11.278Z,78.4344
2023-05-05T02:01:14.163Z,78.0418
2023-05-05T02:02:17.113Z,79.0234
2023-05-05T02:03:20.177Z,79.1129
2023-05-05T02:04:23.017Z,79.0536
2023-05-05T02:05:25.976Z,79.2192
2023-05-05T02:06:28.907Z,79.0457
2023-05-05T02:07:31.849Z,78.7853
2023-05-05T02:08:34.812Z,79.0617
2023-05-05T02:09:37.778Z,78.3243
2023-05-05T02:10:40.720Z,78.5090
2023-05-05T02:11:43.698Z,78.8748
2023-05-05T02:12:46.791Z,78.8472
2023-05-05T02:13:49.598Z,78.5292
2023-05-05T02:14:52.566Z,78.8154
2023-05-05T02:15:55.512Z,78.1574
2023-05-05T02:16:58.472Z,78.8165
2023-05-05T02:18:01.440Z,79.2880
2023-05-05T02:19:04.378Z,79.5058
2023-05-05T02:20:07.505Z,78.5376
2023-05-05T02:21:10.267Z,79.0157
2023-05-05T02:22:13.228Z,79.1048
2023-05-05T02:23:16.184Z,78.8077
2023-05-05T02:24:19.173Z,79.0241
2023-05-05T02:25:22.086Z,78.5161
2023-05-05T02:26:25.049Z,78.1836
2023-05-05T02:27:28.051Z,78.4354
2023-05-05T02:28:30.974Z,79.1232
2023-05-05T02:29:33.916Z,78.9397
2023-05-05T02:30:36.925Z,78.8646
2023-05-05T02:31:39.886Z,79.0737
2023-05-05T02:32:42.827Z,78.6054
2023-05-05T02:33:45.740Z,78.2445
2023-05-05T02:34:48.733Z,78.3935
2023-05-05T02:35:51.665Z,78.7117
2023-05-05T02:36:54.637Z,78.9622
2023-05-05T02:37:57.582Z,78.8239
2023-05-05T02:39:00.503Z,78.8558
2023-05-05T02:40:03.474Z,78.9810
2023-05-05T02:41:06.443Z,78.7573
2023-05-05T02:42:09.376Z,78.3929
2023-05-05T02:43:12.363Z,78.6151
2023-05-05T02:44:15.297Z,78.5816
2023-05-05T02:45:18.276Z,78.8019
2023-05-05T02:46:21.269Z,78.6934
2023-05-05T02:47:24.180Z,78.5233
2023-05-05T02:48:27.136Z,79.2308
2023-05-05T02:49:30.078Z,79.8157
2023-05-05T02:50:33.018Z,79.4310
2023-05-05T02:51:35.959Z,78.4147
2023-05-05T02:52:38.947Z,78.5317
2023-05-05T02:53:41.963Z,78.4612
2023-05-05T02:54:44.845Z,78.5269
2023-05-05T02:55:47.782Z,78.4951
2023-05-05T02:56:50.793Z,78.9114
2023-05-05T02:57:53.698Z,79.3110
2023-05-05T02:58:56.669Z,79.0127
2023-05-05T02:59:59.618Z,78.4139
2023-05-05T03:01:02.632Z,78.1865
2023-05-05T03:02:05.582Z,78.0732
2023-05-05T03:03:08.541Z,78.5443
2023-05-05T03:04:11.427Z,78.4350
2023-05-05T03:05:14.396Z,78.8212
2023-05-05T03:06:17.409Z,78.4995
2023-05-05T03:07:20.329Z,78.1695
2023-05-05T03:08:23.262Z,78.4875
2023-05-05T03:09:26.204Z,78.9111
2023-05-05T03:10:29.166Z,78.9078
2023-05-05T03:11:32.128Z,79.0532
2023-05-05T03:12:35.124Z,79.1719
2023-05-05T03:13:38.033Z,79.2422
2023-05-05T03:14:41.021Z,79.2969
2023-05-05T03:15:43.946Z,78.9865
2023-05-05T03:16:46.943Z,78.6159
2023-05-05T03:17:49.913Z,79.5312
2023-05-05T03:18:52.918Z,78.6181
2023-05-05T03:19:55.777Z,78.3473
2023-05-05T03:20:58.713Z,78.8143
2023-05-05T03:22:01.699Z,79.0009
2023-05-05T03:23:04.633Z,79.0058
2023-05-05T03:24:07.609Z,79.4568
2023-05-05T03:25:10.790Z,79.3024
2023-05-05T03:26:13.527Z,78.8136
2023-05-05T03:27:16.509Z,78.6241
2023-05-05T03:28:19.437Z,77.9026
2023-05-05T03:29:22.425Z,78.5810
2023-05-05T03:30:25.346Z,79.0849
2023-05-05T03:31:28.400Z,78.9606
2023-05-05T03:32:31.284Z,79.0328
2023-05-05T03:33:34.230Z,79.4257
2023-05-05T03:34:37.474Z,79.3413
2023-05-05T03:35:40.137Z,79.5582
2023-05-05T03:36:43.097Z,79.3944
2023-05-05T03:37:46.096Z,78.8099
2023-05-05T03:38:49.010Z,78.0551
2023-05-05T03:39:51.979Z,77.8262
2023-05-05T03:40:54.925Z,77.9872
2023-05-05T03:41:57.915Z,79.1225
2023-05-05T03:43:00.841Z,79.3298
2023-05-05T03:44:03.807Z,79.1464
2023-05-05T03:45:06.750Z,78.6185
2023-05-05T03:46:09.729Z,78.6268
2023-05-05T03:47:12.677Z,78.7547
2023-05-05T03:48:15.696Z,78.6973
2023-05-05T03:49:18.657Z,78.8152
2023-05-05T03:50:21.618Z,78.9562
2023-05-05T03:51:24.562Z,78.8825
2023-05-05T03:52:27.517Z,78.9205
2023-05-05T03:53:30.506Z,79.8030
2023-05-05T03:54:33.470Z,79.6208
2023-05-05T03:55:36.525Z,79.3346
2023-05-05T03:56:39.374Z,79.6735
2023-05-05T03:57:42.339Z,79.4171
2023-05-05T03:58:45.276Z,79.3605
2023-05-05T03:59:48.218Z,79.2897
2023-05-05T04:00:51.179Z,79.8894
2023-05-05T04:01:54.180Z,79.4892
2023-05-05T04:02:57.187Z,79.7821
2023-05-05T04:04:00.119Z,79.9623
2023-05-05T04:05:03.007Z,79.5057
2023-05-05T04:06:06.046Z,79.1922
2023-05-05T04:07:08.973Z,79.6398
2023-05-05T04:08:11.898Z,79.5351
2023-05-05T04:09:14.847Z,78.8002
2023-05-05T04:10:17.858Z,79.3961
2023-05-05T04:11:20.750Z,80.3042
2023-05-05T04:12:23.713Z,80.2113
2023-05-05T04:13:26.701Z,80.2911
2023-05-05T04:14:29.648Z,80.2636
2023-05-05T04:15:32.586Z,80.1667
2023-05-05T04:16:35.534Z,80.4219
2023-05-05T04:17:38.541Z,79.9202
2023-05-05T04:18:41.469Z,79.7630
2023-05-05T04:19:44.446Z,79.6891
2023-05-05T04:20:47.380Z,79.9164
2023-05-05T04:21:50.550Z,80.3411
2023-05-05T04:22:53.368Z,79.9286
2023-05-05T04:23:56.290Z,79.3807
2023-05-05T04:24:59.275Z,79.2344
2023-05-05T04:26:02.165Z,79.4376
2023-05-05T04:27:05.124Z,79.4659
2023-05-05T04:28:08.061Z,79.8199
2023-05-05T04:29:11.008Z,79.7078
2023-05-05T04:30:14.026Z,79.8393
2023-05-05T04:31:16.965Z,79.8895
2023-05-05T04:32:19.875Z,80.3159
2023-05-05T04:33:22.823Z,80.7786
2023-05-05T04:34:25.758Z,80.0975
2023-05-05T04:35:28.738Z,79.4901
2023-05-05T04:36:31.670Z,79.3157
2023-05-05T04:37:34.623Z,79.1669
2023-05-05T04:38:37.648Z,79.0532
2023-05-05T04:39:40.522Z,78.6876
2023-05-05T04:40:43.452Z,78.8529
2023-05-05T04:41:46.418Z,79.5664
2023-05-05T04:42:49.368Z,79.5817
2023-05-05T04:43:52.336Z,79.2629
2023-05-05T04:44:55.266Z,79.2598
2023-05-05T04:45:58.216Z,80.4404
2023-05-05T04:47:01.170Z,80.6364
2023-05-05T04:48:04.167Z,80.6417
2023-05-05T04:49:07.040Z,80.1748
2023-05-05T04:50:10.245Z,79.7474
2023-05-05T04:51:13.029Z,79.0025
2023-05-05T04:52:15.916Z,78.8985
2023-05-05T04:53:18.840Z,78.7820
2023-05-05T04:54:21.850Z,78.9658
2023-05-05T04:55:24.763Z,79.4632
2023-05-05T04:56:27.696Z,79.2085
2023-05-05T04:57:30.654Z,78.6526
2023-05-05T04:58:33.619Z,78.9631
2023-05-05T04:59:36.530Z,78.7309
2023-05-05T05:00:39.464Z,79.5727
2023-05-05T05:01:42.439Z,79.2637
2023-05-05T05:02:45.520Z,78.6972
2023-05-05T05:03:48.419Z,78.5752
2023-05-05T05:04:51.263Z,78.7959
2023-05-05T05:05:54.247Z,79.5010
2023-05-05T05:06:59.111Z,79.9198
2023-05-05T05:08:00.135Z,79.9449
2023-05-05T05:09:03.045Z,79.6492
2023-05-05T05:10:06.214Z,80.0423
2023-05-05T05:11:08.939Z,79.9158
2023-05-05T05:12:11.895Z,79.3936
2023-05-05T05:13:14.861Z,78.6461
2023-05-05T05:14:17.830Z,78.8781
2023-05-05T05:15:20.754Z,79.2020
2023-05-05T05:16:23.741Z,78.9391
2023-05-05T05:17:26.898Z,78.7390
2023-05-05T05:18:29.579Z,79.0264
2023-05-05T05:19:32.538Z,78.8254
2023-05-05T05:20:35.596Z,79.0072
2023-05-05T05:21:38.445Z,78.6256
2023-05-05T05:22:41.433Z,78.5428
2023-05-05T05:23:44.304Z,78.7342
2023-05-05T05:24:47.260Z,79.3249
2023-05-05T05:25:50.215Z,79.1907
2023-05-05T05:26:53.144Z,79.7928
2023-05-05T05:28:08.964Z,80.2105
2023-05-05T05:28:59.033Z,80.2561
2023-05-05T05:30:02.008Z,79.9636
2023-05-05T05:31:05.127Z,79.1788
2023-05-05T05:32:07.948Z,79.4852
2023-05-05T05:33:10.906Z,78.9902
2023-05-05T05:34:13.777Z,78.7657
2023-05-05T05:35:16.783Z,78.2013
2023-05-05T05:36:19.698Z,78.7397
2023-05-05T05:37:22.726Z,78.2958
2023-05-05T05:38:25.572Z,77.4426
2023-05-05T05:39:28.576Z,77.2099
2023-05-05T05:40:31.528Z,76.8474
2023-05-05T05:41:34.485Z,76.3002
2023-05-05T05:42:37.374Z,75.5427
2023-05-05T05:43:40.324Z,75.6026
2023-05-05T05:44:43.260Z,76.7192
2023-05-05T05:45:46.202Z,76.5533
2023-05-05T05:46:49.159Z,76.7463
2023-05-05T05:47:52.186Z,76.4908
2023-05-05T05:48:55.067Z,76.7167
2023-05-05T05:49:58.132Z,76.1187
2023-05-05T05:51:00.920Z,76.2208
2023-05-05T05:52:03.854Z,75.9540
2023-05-05T05:53:06.926Z,76.4456
2023-05-05T05:54:09.770Z,76.3869
2023-05-05T05:55:12.881Z,76.7602
2023-05-05T05:56:15.822Z,76.5131
2023-05-05T05:57:18.698Z,76.6901
2023-05-05T05:58:21.569Z,77.6537
2023-05-05T05:59:24.623Z,77.7311
2023-05-05T06:00:27.553Z,77.6899
2023-05-05T06:01:30.448Z,77.8164
2023-05-05T06:02:33.473Z,77.6667
2023-05-05T06:03:36.394Z,77.6441
2023-05-05T06:04:39.324Z,76.7829
2023-05-05T06:05:42.221Z,76.6613
2023-05-05T06:06:45.213Z,76.4972
2023-05-05T06:07:48.154Z,77.0011
2023-05-05T06:08:51.065Z,77.1041
2023-05-05T06:09:53.988Z,77.1010
2023-05-05T06:10:56.938Z,76.9615
2023-05-05T06:11:59.860Z,76.6418
2023-05-05T06:13:02.840Z,76.5957
2023-05-05T06:14:05.755Z,76.3830
2023-05-05T06:15:08.753Z,76.2882
2023-05-05T06:16:11.754Z,75.9549
2023-05-05T06:17:14.663Z,76.0343
2023-05-05T06:18:17.640Z,75.9335
2023-05-05T06:19:20.488Z,74.3231
2023-05-05T06:20:23.442Z,74.0550
2023-05-05T06:21:26.471Z,73.6944
2023-05-05T06:22:29.327Z,74.0083
2023-05-05T06:23:32.337Z,73.4635
2023-05-05T06:24:35.233Z,72.7307
2023-05-05T06:25:38.202Z,71.5735
2023-05-05T06:26:41.147Z,71.7519
2023-05-05T06:27:44.092Z,71.5510
2023-05-05T06:28:47.062Z,71.6256
2023-05-05T06:29:49.983Z,71.8701
2023-05-05T06:30:53.038Z,70.9098
2023-05-05T06:31:55.910Z,70.6835
2023-05-05T06:32:58.912Z,71.1936
2023-05-05T06:34:01.926Z,70.8848
2023-05-05T06:35:04.724Z,70.6695
2023-05-05T06:36:07.860Z,70.5205
2023-05-05T06:37:10.650Z,70.9705
2023-05-05T06:38:13.584Z,71.0968
2023-05-05T06:39:16.514Z,71.5899
2023-05-05T06:40:19.611Z,71.6358
2023-05-05T06:41:22.411Z,71.2568
2023-05-05T06:42:25.432Z,70.7708
2023-05-05T06:43:28.306Z,70.2255
2023-05-05T06:44:31.463Z,69.3481
2023-05-05T06:45:34.163Z,69.5525
2023-05-05T06:46:37.150Z,69.4086
2023-05-05T06:47:40.154Z,68.8597
2023-05-05T06:48:43.031Z,68.8153
2023-05-05T06:49:45.990Z,68.9446
2023-05-05T06:50:49.144Z,68.9797
2023-05-05T06:51:51.998Z,68.9481
2023-05-05T06:52:54.838Z,70.1213
2023-05-05T06:53:57.796Z,70.2948
2023-05-05T06:55:00.760Z,69.0605
2023-05-05T06:56:03.686Z,69.7117
2023-05-05T06:57:06.724Z,70.3805
2023-05-05T06:58:09.677Z,69.9486
2023-05-05T06:59:12.566Z,69.4674
2023-05-05T07:00:15.516Z,68.9360
2023-05-05T07:01:18.533Z,69.0893
2023-05-05T07:02:21.356Z,67.9739
2023-05-05T07:03:24.327Z,67.3881
2023-05-05T07:04:27.279Z,67.0457
2023-05-05T07:05:30.218Z,66.7997
2023-05-05T07:06:33.207Z,67.0299
2023-05-05T07:07:36.088Z,66.2566
2023-05-05T07:08:39.043Z,65.8875
2023-05-05T07:09:41.977Z,66.3435
2023-05-05T07:10:44.966Z,66.9875
2023-05-05T07:11:47.884Z,67.8208
2023-05-05T07:12:50.811Z,67.0275
2023-05-05T07:13:53.888Z,67.0243
2023-05-05T07:14:56.778Z,66.9757
2023-05-05T07:15:59.787Z,67.0446
2023-05-05T07:17:02.601Z,67.0931
2023-05-05T07:18:05.654Z,67.0504
2023-05-05T07:19:08.500Z,66.6856
2023-05-05T07:20:11.470Z,65.9642
2023-05-05T07:21:14.416Z,65.5114
2023-05-05T07:22:17.364Z,65.3450
2023-05-05T07:23:20.273Z,64.8535
2023-05-05T07:24:23.272Z,64.4884
2023-05-05T07:25:26.204Z,64.7231
2023-05-05T07:26:29.178Z,65.2495
2023-05-05T07:27:32.056Z,65.0862
2023-05-05T07:28:35.017Z,63.0491
2023-05-05T07:29:37.975Z,61.8664
2023-05-05T07:30:40.888Z,61.0921
2023-05-05T07:31:43.904Z,60.2355
2023-05-05T07:32:46.825Z,60.0498
2023-05-05T07:33:49.837Z,60.2619
2023-05-05T07:34:52.727Z,59.7864
2023-05-05T07:35:55.623Z,59.8027
2023-05-05T07:36:58.599Z,59.8009
2023-05-05T07:38:01.541Z,58.5597
2023-05-05T07:39:04.534Z,58.3429
2023-05-05T07:40:07.577Z,58.2983
2023-05-05T07:41:10.380Z,58.1366
2023-05-05T07:42:13.292Z,57.4662
2023-05-05T07:43:16.357Z,57.8070
2023-05-05T07:44:19.192Z,58.1103
2023-05-05T07:45:22.152Z,57.2899
2023-05-05T07:46:25.148Z,57.5266
2023-05-05T07:47:28.195Z,58.5853
2023-05-05T07:48:31.024Z,58.6532
2023-05-05T07:49:34.018Z,58.8942
2023-05-05T07:50:36.907Z,61.1810
2023-05-05T07:51:39.843Z,61.5633
2023-05-05T07:52:46.820Z,61.3527
2023-05-05T07:53:45.805Z,61.6511
2023-05-05T07:54:48.677Z,57.8501
2023-05-05T07:55:51.742Z,57.9143
2023-05-05T07:56:54.653Z,57.4348
2023-05-05T07:57:57.590Z,59.0345
2023-05-05T07:59:00.557Z,59.5632
2023-05-05T08:00:03.501Z,57.8250
2023-05-05T08:01:06.483Z,56.5147
2023-05-05T08:02:09.634Z,56.3245
2023-05-05T08:03:12.552Z,57.6772
2023-05-05T08:04:15.335Z,56.9211
2023-05-05T08:05:18.253Z,57.2720
2023-05-05T08:06:21.198Z,57.2037
2023-05-05T08:07:24.184Z,55.2421
2023-05-05T08:08:27.097Z,54.9741
2023-05-05T08:09:30.055Z,54.6225
2023-05-05T08:10:33.002Z,55.4371
2023-05-05T08:11:35.956Z,54.9658
2023-05-05T08:12:39.004Z,54.7199
2023-05-05T08:13:41.888Z,55.2873
2023-05-05T08:14:44.825Z,57.4956
2023-05-05T08:15:47.858Z,57.9972
2023-05-05T08:16:50.705Z,53.9310
2023-05-05T08:17:53.711Z,52.8035
2023-05-05T08:18:56.675Z,53.1728
2023-05-05T08:19:59.569Z,54.0064
2023-05-05T08:21:02.537Z,53.4121
2023-05-05T08:22:05.473Z,52.2908
2023-05-05T08:23:08.456Z,53.0608
2023-05-05T08:24:11.406Z,52.8070
2023-05-05T08:25:14.336Z,52.6234
2023-05-05T08:26:17.413Z,54.1801
2023-05-05T08:27:20.225Z,52.3485
2023-05-05T08:28:23.235Z,52.6635
2023-05-05T08:29:26.205Z,51.7963
2023-05-05T08:30:29.082Z,52.4593
2023-05-05T08:31:32.074Z,50.5268
2023-05-05T08:32:35.170Z,50.4748
2023-05-05T08:33:37.965Z,51.2486
2023-05-05T08:34:41.009Z,50.6812
2023-05-05T08:35:43.846Z,50.1213
2023-05-05T08:36:46.807Z,50.6878
2023-05-05T08:37:49.743Z,49.8833
2023-05-05T08:38:52.688Z,51.9445
2023-05-05T08:39:55.643Z,52.1254
2023-05-05T08:40:58.698Z,50.4962
2023-05-05T08:42:01.653Z,51.2522
2023-05-05T08:43:04.522Z,50.9046
2023-05-05T08:44:07.456Z,51.4467
2023-05-05T08:45:10.926Z,50.8803
2023-05-05T08:46:13.554Z,51.2328
2023-05-05T08:47:16.357Z,51.2669
2023-05-05T08:48:19.367Z,49.4224
2023-05-05T08:49:22.378Z,49.7699
2023-05-05T08:50:25.267Z,48.1768
2023-05-05T08:51:28.133Z,49.7027
2023-05-05T08:52:31.174Z,48.7521
2023-05-05T08:53:34.039Z,48.2918
2023-05-05T08:54:36.981Z,48.8095
2023-05-05T08:55:39.965Z,49.0783
2023-05-05T08:56:42.912Z,49.9840
2023-05-05T08:57:45.830Z,49.3787
2023-05-05T08:58:48.802Z,49.2149
2023-05-05T08:59:51.769Z,47.0767
2023-05-05T09:00:54.757Z,47.5418
2023-05-05T09:01:57.690Z,48.6111
2023-05-05T09:03:00.854Z,48.6594
2023-05-05T09:04:03.572Z,49.7409
2023-05-05T09:05:06.825Z,49.4889
2023-05-05T09:06:09.641Z,49.7426
2023-05-05T09:07:12.459Z,49.6990
2023-05-05T09:08:15.422Z,49.2488
2023-05-05T09:09:18.339Z,47.7215
2023-05-05T09:10:21.391Z,48.6218
2023-05-05T09:11:24.280Z,48.2656
2023-05-05T09:12:27.183Z,47.7308
2023-05-05T09:13:30.142Z,47.1334
2023-05-05T09:14:33.083Z,47.5894
2023-05-05T09:15:36.076Z,48.3822
2023-05-05T09:16:38.969Z,48.4882
2023-05-05T09:17:42.071Z,46.8730
2023-05-05T09:18:44.878Z,45.4103
2023-05-05T09:19:47.835Z,45.8631
2023-05-05T09:20:50.799Z,45.8294
2023-05-05T09:21:53.794Z,45.4985
2023-05-05T09:22:56.717Z,46.2949
2023-05-05T09:24:04.919Z,46.3368
2023-05-05T09:25:02.614Z,47.1354
2023-05-05T09:26:05.572Z,46.8956
2023-05-05T09:27:08.539Z,45.5178
2023-05-05T09:28:11.501Z,44.9391
2023-05-05T09:29:14.417Z,45.3236
2023-05-05T09:30:17.569Z,46.2867
2023-05-05T09:31:20.371Z,47.7233
2023-05-05T09:32:23.322Z,46.4070
2023-05-05T09:33:26.534Z,46.7984
2023-05-05T09:34:29.186Z,47.0733
2023-05-05T09:35:32.141Z,46.9152
2023-05-05T09:36:35.118Z,44.7648
2023-05-05T09:37:38.187Z,45.8753
2023-05-05T09:38:41.002Z,46.4887
2023-05-05T09:39:43.950Z,44.9485
2023-05-05T09:40:46.900Z,44.7542
2023-05-05T09:41:49.910Z,44.2029
2023-05-05T09:42:52.812Z,44.3232
2023-05-05T09:43:55.746Z,45.5467
2023-05-05T09:45:00.042Z,45.2516
2023-05-05T09:46:01.764Z,45.4549
2023-05-05T09:47:09.464Z,44.5615
2023-05-05T09:48:07.585Z,45.0874
2023-05-05T09:49:10.554Z,45.6726
2023-05-05T09:50:13.495Z,44.5792
2023-05-05T09:51:16.500Z,45.9779
2023-05-05T09:52:19.409Z,43.0606
2023-05-05T09:53:22.447Z,42.5359
2023-05-05T09:54:25.338Z,44.0818
2023-05-05T09:55:28.237Z,43.7197
2023-05-05T09:56:31.199Z,44.5586
2023-05-05T09:57:34.164Z,43.5077
2023-05-05T09:58:37.173Z,43.6366
2023-05-05T09:59:40.147Z,42.7039
2023-05-05T10:00:43.025Z,43.8683
2023-05-05T10:01:45.997Z,43.9176
2023-05-05T10:02:48.955Z,43.5061
2023-05-05T10:03:51.902Z,43.7409
2023-05-05T10:04:54.873Z,43.6946
2023-05-05T10:05:57.824Z,42.7554
2023-05-05T10:07:00.754Z,43.5073
2023-05-05T10:08:03.722Z,46.9027
2023-05-05T10:09:06.636Z,43.8354
2023-05-05T10:10:09.994Z,44.3440
2023-05-05T10:11:12.590Z,42.6075
2023-05-05T10:12:15.551Z,42.4583
2023-05-05T10:13:18.652Z,43.1877
2023-05-05T10:14:21.399Z,43.9223
2023-05-05T10:15:24.521Z,43.8523
2023-05-05T10:16:28.613Z,44.4534
2023-05-05T10:17:30.297Z,43.6653
2023-05-05T10:18:33.226Z,42.7794
2023-05-05T10:19:36.204Z,43.1797
2023-05-05T10:20:39.180Z,43.1218
2023-05-05T10:21:42.324Z,42.5169
2023-05-05T10:22:45.055Z,42.5851
2023-05-05T10:23:48.033Z,44.0175
2023-05-05T10:24:50.914Z,44.7777
2023-05-05T10:25:53.899Z,44.6081
2023-05-05T10:26:56.875Z,42.0406
2023-05-05T10:27:59.785Z,42.5528
2023-05-05T10:29:02.743Z,41.0627
2023-05-05T10:30:05.791Z,40.3353
2023-05-05T10:31:23.955Z,43.0827
2023-05-05T10:32:33.577Z,41.3917
2023-05-05T10:33:31.207Z,41.4346
2023-05-05T10:34:17.553Z,43.0387
2023-05-05T10:35:20.485Z,42.6704
2023-05-05T10:36:24.472Z,41.9266
2023-05-05T10:37:26.415Z,41.5563
2023-05-05T10:38:29.367Z,40.7419
2023-05-05T10:39:32.316Z,39.7049
2023-05-05T10:40:35.429Z,40.8695
2023-05-05T10:41:38.246Z,40.3323
2023-05-05T10:42:41.191Z,40.5546
2023-05-05T10:43:44.148Z,41.9911
2023-05-05T10:44:47.151Z,40.4114
2023-05-05T10:45:50.181Z,38.2724
2023-05-05T10:46:53.042Z,39.5348
2023-05-05T10:47:56.026Z,39.3906
2023-05-05T10:48:58.981Z,39.6443
2023-05-05T10:50:01.934Z,39.0011
2023-05-05T10:51:04.918Z,39.8293
2023-05-05T10:52:07.952Z,40.2112
2023-05-05T10:53:10.828Z,38.6830
2023-05-05T10:54:13.836Z,39.2869
2023-05-05T10:55:16.765Z,38.9872
2023-05-05T10:56:19.790Z,39.7481
2023-05-05T10:57:22.655Z,39.4209
2023-05-05T10:58:25.812Z,40.8344
2023-05-05T10:59:28.680Z,39.7773
2023-05-05T11:00:31.811Z,38.4476
2023-05-05T11:01:34.940Z,39.1643
2023-05-05T11:02:38.008Z,38.5100
2023-05-05T11:03:40.534Z,38.4038
2023-05-05T11:04:43.511Z,38.4776
2023-05-05T11:05:46.408Z,39.0949
2023-05-05T11:06:49.636Z,38.3370
2023-05-05T11:07:52.377Z,38.4553
2023-05-05T11:08:55.447Z,37.9072
2023-05-05T11:09:58.284Z,37.6885
2023-05-05T11:11:01.287Z,39.3388
2023-05-05T11:12:04.348Z,38.3899
2023-05-05T11:13:07.184Z,38.3629
2023-05-05T11:14:10.110Z,38.5630
2023-05-05T11:15:13.084Z,37.2381
2023-05-05T11:16:16.067Z,37.2596
2023-05-05T11:17:19.056Z,37.4337
2023-05-05T11:18:21.978Z,37.4852
2023-05-05T11:19:24.902Z,39.0745
2023-05-05T11:20:27.897Z,37.4375
2023-05-05T11:21:30.838Z,36.7649
2023-05-05T11:22:33.803Z,36.9086
2023-05-05T11:23:36.781Z,36.9083
2023-05-05T11:24:39.746Z,37.7744
2023-05-05T11:25:42.691Z,36.5054
2023-05-05T11:26:45.648Z,37.0629
2023-05-05T11:27:48.689Z,36.2378
2023-05-05T11:28:51.616Z,37.3528
2023-05-05T11:29:54.546Z,37.5553
2023-05-05T11:30:58.229Z,38.3686
2023-05-05T11:32:00.457Z,38.9791
2023-05-05T11:33:03.488Z,38.6756
2023-05-05T11:34:06.368Z,39.9585
2023-05-05T11:35:09.358Z,38.5792
2023-05-05T11:36:12.347Z,38.7370
2023-05-05T11:37:15.252Z,38.4398
2023-05-05T11:38:18.205Z,38.8597
2023-05-05T11:39:21.182Z,39.8013
2023-05-05T11:40:24.135Z,38.3530
2023-05-05T11:41:27.114Z,38.1369
2023-05-05T11:42:30.039Z,38.8039
2023-05-05T11:43:33.129Z,40.7603
2023-05-05T11:44:36.132Z,40.7526
2023-05-05T11:45:38.942Z,41.3581
2023-05-05T11:46:41.871Z,41.5800
2023-05-05T11:47:44.905Z,40.4981
2023-05-05T11:48:47.791Z,38.9293
2023-05-05T11:49:52.096Z,40.3402
2023-05-05T11:51:09.587Z,40.3972
2023-05-05T11:52:04.793Z,40.6555
2023-05-05T11:52:59.621Z,40.0018
2023-05-05T11:54:02.669Z,40.4893
2023-05-05T11:55:05.545Z,40.7098
2023-05-05T11:56:08.698Z,40.0421
2023-05-05T11:57:11.460Z,38.4193
2023-05-05T11:58:14.468Z,40.3757
2023-05-05T11:59:17.416Z,40.1097
2023-05-05T12:00:20.501Z,37.7815
2023-05-05T12:01:23.330Z,39.4081
2023-05-05T12:02:26.381Z,39.7046
2023-05-05T12:03:29.392Z,40.8139
2023-05-05T12:04:32.393Z,38.6505
2023-05-05T12:05:36.714Z,38.7214
2023-05-05T12:06:38.138Z,39.1630
2023-05-05T12:07:41.102Z,39.7756
2023-05-05T12:08:44.055Z,40.0695
2023-05-05T12:09:47.043Z,40.8381
2023-05-05T12:10:50.009Z,39.7586
2023-05-05T12:11:52.941Z,40.2696
2023-05-05T12:12:56.107Z,40.1286
2023-05-05T12:13:58.864Z,41.1915
2023-05-05T12:15:01.894Z,40.6520
2023-05-05T12:16:04.858Z,39.7767
2023-05-05T12:17:07.774Z,40.4169
2023-05-05T12:18:10.737Z,41.4081
2023-05-05T12:19:13.701Z,39.7431
2023-05-05T12:20:16.648Z,41.1659
2023-05-05T12:21:19.599Z,41.5862
2023-05-05T12:22:22.558Z,40.7982
2023-05-05T12:23:25.523Z,39.8915
2023-05-05T12:24:28.520Z,40.5133
2023-05-05T12:25:31.573Z,41.5588
2023-05-05T12:26:34.511Z,40.6445
2023-05-05T12:27:37.353Z,41.0570
2023-05-05T12:28:40.293Z,41.7357
2023-05-05T12:29:43.299Z,40.9589
2023-05-05T12:30:46.353Z,39.9404
2023-05-05T12:31:49.268Z,40.1129
2023-05-05T12:32:52.310Z,39.4548
2023-05-05T12:33:55.268Z,39.8989
2023-05-05T12:34:58.076Z,40.4602
2023-05-05T12:36:01.002Z,40.7777
2023-05-05T12:37:03.960Z,42.2882
2023-05-05T12:38:06.954Z,41.4255
2023-05-05T12:39:09.896Z,40.6717
2023-05-05T12:40:12.860Z,40.5462
2023-05-05T12:41:15.825Z,40.1879